Portada
METAR-TAF:

METAR-TAF

Aeroports :

NWS Office

Majuro, Illes Marshall

latitud: 07-05N, longitud: 171-12E, altitud: 4 m

Observació

L'informe es va fer fa 1 hora i 7 minuts, a les 22:51 UTC
Vent 14 kt del Est
Temperatura 29°C
Humitat 79%
Pressió 1010 hPa
Visibilitat: 24.1 km
Escasses núvols a una alçada de 1500 ft
Cel ennuvolat a una alçada de 5000 ft
Cel ennuvolat a una alçada de 12000 ft
Cel cobert a una alçada de 30000 ft

METAR: PKMR 012251Z 08014KT 15SM FEW015 BKN050 BKN120 OVC300 29/25 A2983 RMK SLP102 T02860252

Hora: 11:58 (23:58 UTC)


TAF: manca

Observacions i pronòstics meteorològics de més de 4000 aeroports (METAR i TAF).

Les estacions disponibles són els punts grocs i vermells al mapa.

Posi el ratolí al punt desitjat per veure el nom de l'estació.

Feu clic per veure les observacions i els pronòstics meteorològics.

Per canviar el mapa: feu clic els botons verds amb una creu de color negre per apropar; al botó verd amb un guió per allunyar la imatge; o en les fletxes verdes per a mapes adjacents.


METAR-TAF: